Time;durP1;ratioP1;P1;durP2;ratioP2;P2;SDS_P1;SDS_P2;PMS_P1;PMS_P2;Temp;Humidity;BMP_temperature;BMP_pressure;BME280_temperature;BME280_humidity;BME280_pressure;Samples;Min_cycle;Max_cycle;Signal;HPM_P1;HPM_P2
2023/10/28 00:00:16;;;;;;;;;3.33;3.33;;;;;;;;5083927;28;45492;-79
2023/10/28 00:02:41;;;;;;;;;3.33;2.33;;;;;;;;5084075;28;45273;-80
2023/10/28 00:05:07;;;;;;;;;2.33;2.00;;;;;;;;5081428;28;46038;-80
2023/10/28 00:07:32;;;;;;;;;3.00;3.00;;;;;;;;5082820;28;46180;-79
2023/10/28 00:09:57;;;;;;;;;3.00;3.00;;;;;;;;5082931;28;45347;-79
2023/10/28 00:12:22;;;;;;;;;2.33;1.33;;;;;;;;5082968;28;45296;-80
2023/10/28 00:14:47;;;;;;;;;2.67;2.33;;;;;;;;5083038;28;45244;-80
2023/10/28 00:17:13;;;;;;;;;3.00;3.00;;;;;;;;5083333;28;45240;-80
2023/10/28 00:19:38;;;;;;;;;2.50;2.50;;;;;;;;5082939;28;45425;-80
2023/10/28 00:22:03;;;;;;;;;2.67;2.67;;;;;;;;5083242;28;45307;-79
2023/10/28 00:24:28;;;;;;;;;4.00;3.00;;;;;;;;5083220;28;45292;-80
2023/10/28 00:26:54;;;;;;;;;3.33;2.00;;;;;;;;5083806;28;45554;-79
2023/10/28 00:29:19;;;;;;;;;6.00;3.67;;;;;;;;5092558;27;45369;-80
2023/10/28 00:31:44;;;;;;;;;3.00;2.67;;;;;;;;5105128;27;45459;-79
2023/10/28 00:34:09;;;;;;;;;4.33;4.33;;;;;;;;5105226;27;45263;-79
2023/10/28 00:36:35;;;;;;;;;3.00;1.33;;;;;;;;5104144;27;45487;-79
2023/10/28 00:39:01;;;;;;;;;4.00;2.33;;;;;;;;5103987;27;45465;-80
2023/10/28 00:41:26;;;;;;;;;2.67;2.67;;;;;;;;5103500;27;45597;-80
2023/10/28 00:43:51;;;;;;;;;1.25;0.25;;;;;;;;5104821;27;45283;-79
2023/10/28 00:46:17;;;;;;;;;1.00;1.00;;;;;;;;5102863;27;45473;-79
2023/10/28 00:48:42;;;;;;;;;2.33;2.00;;;;;;;;5103488;27;45355;-77
2023/10/28 00:51:07;;;;;;;;;1.33;1.33;;;;;;;;5101499;27;45332;-77
2023/10/28 00:53:33;;;;;;;;;1.25;1.25;;;;;;;;5102741;27;45526;-78
2023/10/28 00:55:59;;;;;;;;;3.67;2.00;;;;;;;;5104319;27;45929;-77
2023/10/28 00:58:24;;;;;;;;;1.75;1.75;;;;;;;;5105002;27;45313;-77
2023/10/28 01:00:49;;;;;;;;;2.00;1.33;;;;;;;;5101053;27;45402;-78
2023/10/28 01:03:16;;;;;;;;;1.33;1.33;;;;;;;;5102082;27;46061;-78
2023/10/28 01:05:41;;;;;;;;;4.00;2.00;;;;;;;;5102674;27;47386;-77
2023/10/28 01:08:06;;;;;;;;;4.00;2.00;;;;;;;;5103793;27;45727;-77
2023/10/28 01:10:33;;;;;;;;;2.25;2.25;;;;;;;;5102057;27;45345;-79
2023/10/28 01:13:01;;;;;;;;;1.33;1.33;;;;;;;;5104109;27;45336;-78
2023/10/28 01:15:26;;;;;;;;;2.00;2.00;;;;;;;;5101676;27;47369;-76
2023/10/28 01:17:51;;;;;;;;;2.00;2.00;;;;;;;;5101776;27;45394;-78
2023/10/28 01:20:17;;;;;;;;;2.00;2.00;;;;;;;;5101675;27;45395;-79
2023/10/28 01:22:42;;;;;;;;;3.00;2.50;;;;;;;;5104090;27;45289;-79
2023/10/28 01:25:09;;;;;;;;;3.00;3.00;;;;;;;;5104321;27;45282;-78
2023/10/28 01:27:34;;;;;;;;;1.67;1.67;;;;;;;;5101166;27;45805;-78
2023/10/28 01:30:00;;;;;;;;;3.25;2.25;;;;;;;;5086202;27;45217;-79
2023/10/28 01:32:25;;;;;;;;;1.00;1.00;;;;;;;;5082019;28;45561;-79
2023/10/28 01:34:51;;;;;;;;;2.33;2.33;;;;;;;;5080403;28;47009;-79
2023/10/28 01:37:17;;;;;;;;;3.00;3.00;;;;;;;;5081427;28;45380;-78
2023/10/28 01:39:43;;;;;;;;;3.00;1.33;;;;;;;;5079801;28;45334;-78
2023/10/28 01:42:13;;;;;;;;;3.33;3.33;;;;;;;;5080687;28;45428;-78
2023/10/28 01:44:38;;;;;;;;;4.00;3.00;;;;;;;;5081247;28;45553;-76
2023/10/28 01:47:03;;;;;;;;;3.00;1.33;;;;;;;;5080954;28;45352;-79
2023/10/28 01:49:30;;;;;;;;;2.00;1.00;;;;;;;;5079702;28;45603;-76
2023/10/28 01:51:56;;;;;;;;;2.33;2.00;;;;;;;;5081010;28;45338;-79
2023/10/28 01:54:22;;;;;;;;;1.00;1.00;;;;;;;;5081154;28;45739;-76
2023/10/28 01:56:47;;;;;;;;;1.67;1.33;;;;;;;;5080617;28;45331;-76
2023/10/28 01:59:12;;;;;;;;;1.67;1.67;;;;;;;;5080824;28;45502;-77
2023/10/28 02:01:38;;;;;;;;;0.67;0.67;;;;;;;;5079419;28;47276;-77
2023/10/28 02:04:06;;;;;;;;;5.00;2.00;;;;;;;;5079993;28;46140;-77
2023/10/28 02:06:31;;;;;;;;;0.67;0.67;;;;;;;;5078847;28;45364;-80
2023/10/28 02:08:56;;;;;;;;;1.00;1.00;;;;;;;;5080678;28;45503;-79
2023/10/28 02:11:23;;;;;;;;;3.00;2.33;;;;;;;;5081075;28;45394;-79
2023/10/28 02:13:48;;;;;;;;;0.67;0.67;;;;;;;;5079700;28;47181;-77
2023/10/28 02:16:14;;;;;;;;;4.00;2.00;;;;;;;;5079388;28;45277;-78
2023/10/28 02:18:40;;;;;;;;;1.33;1.33;;;;;;;;5081239;28;45267;-75
2023/10/28 02:21:05;;;;;;;;;4.67;4.33;;;;;;;;5079101;28;46227;-78
2023/10/28 02:23:30;;;;;;;;;2.00;2.00;;;;;;;;5080730;28;46308;-79
2023/10/28 02:25:55;;;;;;;;;1.00;1.00;;;;;;;;5080646;28;45392;-79
2023/10/28 02:28:21;;;;;;;;;2.50;2.50;;;;;;;;5081972;27;45292;-77
2023/10/28 02:30:46;;;;;;;;;3.00;1.67;;;;;;;;5101190;27;45284;-80
2023/10/28 02:33:11;;;;;;;;;3.25;1.25;;;;;;;;5101209;27;45255;-78
2023/10/28 02:35:36;;;;;;;;;1.75;1.25;;;;;;;;5098785;27;45314;-79
2023/10/28 02:38:02;;;;;;;;;1.25;1.25;;;;;;;;5100517;27;45320;-79
2023/10/28 02:40:27;;;;;;;;;4.00;3.33;;;;;;;;5100877;27;45411;-79
2023/10/28 02:42:53;;;;;;;;;1.00;1.00;;;;;;;;5101254;27;45277;-79
2023/10/28 02:45:18;;;;;;;;;3.33;1.67;;;;;;;;5099577;27;45231;-79
2023/10/28 02:47:43;;;;;;;;;3.00;1.25;;;;;;;;5100830;27;45482;-79
2023/10/28 02:50:09;;;;;;;;;2.33;2.33;;;;;;;;5100631;27;45352;-79
2023/10/28 02:52:35;;;;;;;;;1.75;1.75;;;;;;;;5101262;27;45970;-78
2023/10/28 02:55:00;;;;;;;;;2.33;2.00;;;;;;;;5099884;27;45358;-78
2023/10/28 02:57:25;;;;;;;;;3.25;2.50;;;;;;;;5101627;27;45275;-79
2023/10/28 02:59:51;;;;;;;;;3.00;3.00;;;;;;;;5100713;27;45512;-79
2023/10/28 03:02:16;;;;;;;;;5.00;2.25;;;;;;;;5099242;27;48311;-79
2023/10/28 03:04:41;;;;;;;;;4.75;1.75;;;;;;;;5099102;27;45300;-79
2023/10/28 03:07:07;;;;;;;;;2.00;2.00;;;;;;;;5101297;27;45634;-78
2023/10/28 03:09:33;;;;;;;;;1.25;1.25;;;;;;;;5100577;27;45480;-79
2023/10/28 03:11:58;;;;;;;;;1.25;0.75;;;;;;;;5100320;27;45449;-80
2023/10/28 03:14:23;;;;;;;;;3.00;2.25;;;;;;;;5100687;27;45409;-79
2023/10/28 03:16:48;;;;;;;;;3.50;1.00;;;;;;;;5100558;27;45289;-79
2023/10/28 03:19:13;;;;;;;;;2.00;2.00;;;;;;;;5099391;27;47231;-79
2023/10/28 03:21:39;;;;;;;;;3.75;1.25;;;;;;;;5099993;27;45290;-79
2023/10/28 03:24:05;;;;;;;;;3.00;1.50;;;;;;;;5100752;27;45205;-79
2023/10/28 03:26:32;;;;;;;;;1.00;1.00;;;;;;;;5101352;27;45333;-79
2023/10/28 03:28:57;;;;;;;;;4.00;1.50;;;;;;;;5095102;27;45240;-79
2023/10/28 03:31:22;;;;;;;;;0.75;0.75;;;;;;;;5080988;28;46467;-79
2023/10/28 03:33:48;;;;;;;;;1.25;1.25;;;;;;;;5080137;28;45196;-79
2023/10/28 03:36:13;;;;;;;;;0.25;0.25;;;;;;;;5081560;28;45362;-79
2023/10/28 03:38:39;;;;;;;;;2.25;2.25;;;;;;;;5081566;28;45468;-79
2023/10/28 03:41:11;;;;;;;;;2.75;1.00;;;;;;;;5080713;28;47285;-80
2023/10/28 03:43:36;;;;;;;;;2.75;1.25;;;;;;;;5080714;28;45263;-79
2023/10/28 03:46:03;;;;;;;;;0.25;0.25;;;;;;;;5084100;28;45132;-79
2023/10/28 03:48:28;;;;;;;;;0.25;0.00;;;;;;;;5085705;28;45284;-79
2023/10/28 03:50:57;;;;;;;;;2.25;1.25;;;;;;;;5087451;28;45947;-80
2023/10/28 03:53:22;;;;;;;;;1.00;1.00;;;;;;;;5085701;28;45313;-78
2023/10/28 03:55:47;;;;;;;;;2.75;2.50;;;;;;;;5084455;28;45306;-80
2023/10/28 03:58:13;;;;;;;;;1.75;1.00;;;;;;;;5083220;28;45830;-79
2023/10/28 04:00:38;;;;;;;;;2.00;2.00;;;;;;;;5083505;28;45334;-79
2023/10/28 04:03:03;;;;;;;;;2.75;1.75;;;;;;;;5084581;28;45145;-79
2023/10/28 04:05:29;;;;;;;;;0.50;0.50;;;;;;;;5085987;28;45591;-80
2023/10/28 04:07:54;;;;;;;;;1.50;1.50;;;;;;;;5086673;28;45479;-78
2023/10/28 04:10:19;;;;;;;;;2.25;0.50;;;;;;;;5088443;28;46131;-80
2023/10/28 04:12:44;;;;;;;;;1.00;1.00;;;;;;;;5085618;28;45441;-79
2023/10/28 04:15:13;;;;;;;;;4.33;2.33;;;;;;;;5084135;28;45300;-78
2023/10/28 04:17:38;;;;;;;;;1.50;1.25;;;;;;;;5086709;28;45153;-79
2023/10/28 04:20:04;;;;;;;;;2.00;1.67;;;;;;;;5083960;28;45553;-79
2023/10/28 04:22:29;;;;;;;;;3.00;2.00;;;;;;;;5084436;27;45349;-79
2023/10/28 04:24:54;;;;;;;;;1.33;1.33;;;;;;;;5082835;28;45393;-80
2023/10/28 04:27:19;;;;;;;;;4.33;2.33;;;;;;;;5083127;28;47319;-79
2023/10/28 04:29:45;;;;;;;;;2.00;1.00;;;;;;;;5096205;27;45377;-78
2023/10/28 04:32:10;;;;;;;;;2.00;2.00;;;;;;;;5104419;27;45364;-80
2023/10/28 04:34:35;;;;;;;;;1.00;0.33;;;;;;;;5105753;27;45313;-80
2023/10/28 04:37:00;;;;;;;;;3.50;0.25;;;;;;;;5103941;27;45378;-80
2023/10/28 04:39:26;;;;;;;;;4.33;1.67;;;;;;;;5104002;27;45354;-79
2023/10/28 04:41:52;;;;;;;;;1.33;0.33;;;;;;;;5104432;27;45286;-80
2023/10/28 04:44:17;;;;;;;;;2.67;2.67;;;;;;;;5103169;27;45294;-78
2023/10/28 04:46:42;;;;;;;;;0.25;0.25;;;;;;;;5102606;27;46211;-80
2023/10/28 04:49:10;;;;;;;;;0.25;0.25;;;;;;;;5102896;27;46138;-79
2023/10/28 04:51:35;;;;;;;;;1.00;0.67;;;;;;;;5104704;27;45401;-80
2023/10/28 04:54:00;;;;;;;;;1.33;1.00;;;;;;;;5104614;27;45140;-79
2023/10/28 04:56:25;;;;;;;;;1.25;0.50;;;;;;;;5102465;27;45392;-78
2023/10/28 04:58:50;;;;;;;;;4.00;2.00;;;;;;;;5102833;27;45240;-79
2023/10/28 05:01:16;;;;;;;;;2.67;2.00;;;;;;;;5102870;27;45321;-80
2023/10/28 05:03:41;;;;;;;;;1.75;1.75;;;;;;;;5103361;27;45313;-79
2023/10/28 05:06:09;;;;;;;;;4.33;2.33;;;;;;;;5102575;27;46112;-80
2023/10/28 05:08:34;;;;;;;;;2.25;1.25;;;;;;;;5102621;27;45290;-79
2023/10/28 05:10:59;;;;;;;;;2.33;2.33;;;;;;;;5103411;27;45302;-80
2023/10/28 05:13:25;;;;;;;;;1.67;1.67;;;;;;;;5103002;27;45386;-79
2023/10/28 05:15:50;;;;;;;;;2.67;1.00;;;;;;;;5104822;27;45564;-80
2023/10/28 05:18:15;;;;;;;;;0.67;0.67;;;;;;;;5104723;27;45239;-80
2023/10/28 05:20:40;;;;;;;;;0.25;0.25;;;;;;;;5102179;27;45361;-79
2023/10/28 05:23:05;;;;;;;;;2.00;1.00;;;;;;;;5105572;27;45336;-79
2023/10/28 05:25:31;;;;;;;;;1.25;1.25;;;;;;;;5103480;27;47211;-79
2023/10/28 05:27:56;;;;;;;;;1.50;1.00;;;;;;;;5102885;27;45572;-79
2023/10/28 05:30:21;;;;;;;;;1.25;0.75;;;;;;;;5087694;27;45450;-78
2023/10/28 05:32:46;;;;;;;;;1.25;1.25;;;;;;;;5081645;27;45473;-80
2023/10/28 05:35:13;;;;;;;;;1.00;1.00;;;;;;;;5080093;28;45307;-79
2023/10/28 05:37:38;;;;;;;;;2.25;1.25;;;;;;;;5081440;27;45525;-80
2023/10/28 05:40:04;;;;;;;;;2.00;2.00;;;;;;;;5081212;27;45378;-80
2023/10/28 05:42:29;;;;;;;;;2.25;1.25;;;;;;;;5081777;27;45348;-80
2023/10/28 05:44:54;;;;;;;;;1.33;1.33;;;;;;;;5082499;27;45264;-80
2023/10/28 05:47:20;;;;;;;;;2.33;1.33;;;;;;;;5081662;27;46287;-79
2023/10/28 05:49:45;;;;;;;;;3.33;1.33;;;;;;;;5081392;28;45439;-79
2023/10/28 05:52:12;;;;;;;;;2.00;1.00;;;;;;;;5083210;27;45234;-78
2023/10/28 05:54:37;;;;;;;;;2.33;2.33;;;;;;;;5082821;28;45247;-79
2023/10/28 05:57:02;;;;;;;;;2.67;2.67;;;;;;;;5085994;27;46198;-78
2023/10/28 05:59:28;;;;;;;;;1.75;1.75;;;;;;;;5083728;28;45533;-78
2023/10/28 06:01:53;;;;;;;;;4.00;1.00;;;;;;;;5082699;28;45259;-80
2023/10/28 06:04:21;;;;;;;;;1.00;0.50;;;;;;;;5084585;27;45366;-78
2023/10/28 06:06:46;;;;;;;;;3.25;1.50;;;;;;;;5080418;27;45411;-77
2023/10/28 06:09:13;;;;;;;;;1.00;1.00;;;;;;;;5081890;27;45433;-77
2023/10/28 06:11:38;;;;;;;;;0.33;0.33;;;;;;;;5081267;27;45347;-78
2023/10/28 06:14:03;;;;;;;;;4.25;3.00;;;;;;;;5083135;27;45476;-77
2023/10/28 06:16:29;;;;;;;;;1.00;0.25;;;;;;;;5080064;28;48266;-78
2023/10/28 06:18:54;;;;;;;;;0.25;0.25;;;;;;;;5083191;27;45330;-78
2023/10/28 06:21:19;;;;;;;;;2.33;2.00;;;;;;;;5081013;28;45259;-76
2023/10/28 06:23:44;;;;;;;;;3.33;2.33;;;;;;;;5078443;28;45927;-77
2023/10/28 06:26:10;;;;;;;;;3.00;1.50;;;;;;;;5080704;27;45259;-77
2023/10/28 06:28:37;;;;;;;;;5.50;4.25;;;;;;;;5082069;27;45315;-77
2023/10/28 06:31:02;;;;;;;;;2.00;1.25;;;;;;;;5062128;28;45277;-78
2023/10/28 06:33:27;;;;;;;;;0.25;0.25;;;;;;;;5063151;28;45219;-79
2023/10/28 06:35:53;;;;;;;;;1.25;1.25;;;;;;;;5061626;28;45402;-76
2023/10/28 06:38:18;;;;;;;;;6.33;5.33;;;;;;;;5063347;28;46480;-76
2023/10/28 06:40:44;;;;;;;;;2.67;2.67;;;;;;;;5066323;28;45307;-77
2023/10/28 06:43:11;;;;;;;;;1.33;1.33;;;;;;;;5059519;28;45455;-77
2023/10/28 06:45:36;;;;;;;;;1.25;0.75;;;;;;;;5059533;28;45494;-76
2023/10/28 06:48:03;;;;;;;;;1.75;1.50;;;;;;;;5059296;28;45402;-76
2023/10/28 06:50:29;;;;;;;;;1.00;1.00;;;;;;;;5059790;28;45251;-76
2023/10/28 06:52:54;;;;;;;;;1.00;0.25;;;;;;;;5059332;28;45387;-76
2023/10/28 06:55:20;;;;;;;;;1.67;1.67;;;;;;;;5062714;28;45920;-76
2023/10/28 06:57:45;;;;;;;;;3.33;1.33;;;;;;;;5059314;28;45331;-76
2023/10/28 07:00:14;;;;;;;;;1.00;1.00;;;;;;;;5059629;28;45247;-76
2023/10/28 07:02:40;;;;;;;;;1.00;1.00;;;;;;;;5059408;28;45472;-76
2023/10/28 07:05:05;;;;;;;;;1.67;1.33;;;;;;;;5059209;28;46019;-76
2023/10/28 07:07:31;;;;;;;;;2.00;1.50;;;;;;;;5072245;28;45327;-76
2023/10/28 07:09:57;;;;;;;;;0.33;0.33;;;;;;;;5072187;28;45426;-76
2023/10/28 07:12:22;;;;;;;;;4.33;3.00;;;;;;;;5068256;28;45389;-76
2023/10/28 07:14:47;;;;;;;;;1.25;0.75;;;;;;;;5069828;28;46263;-76
2023/10/28 07:17:12;;;;;;;;;2.00;1.25;;;;;;;;5068106;28;45356;-76
2023/10/28 07:19:38;;;;;;;;;2.00;1.00;;;;;;;;5072675;28;45623;-76
2023/10/28 07:22:03;;;;;;;;;1.33;0.33;;;;;;;;5072527;28;45354;-76
2023/10/28 07:24:28;;;;;;;;;2.25;2.25;;;;;;;;5080566;28;46227;-77
2023/10/28 07:26:53;;;;;;;;;0.75;0.50;;;;;;;;5077910;28;45291;-77
2023/10/28 07:29:19;;;;;;;;;0.25;0.25;;;;;;;;5074143;27;45364;-75
2023/10/28 07:31:44;;;;;;;;;1.50;1.50;;;;;;;;5075205;28;45592;-76
2023/10/28 07:34:09;;;;;;;;;0.00;0.00;;;;;;;;5075387;28;45538;-76
2023/10/28 07:36:34;;;;;;;;;0.00;0.00;;;;;;;;5091483;27;45845;-77
2023/10/28 07:39:03;;;;;;;;;0.33;0.33;;;;;;;;5073233;28;45256;-76
2023/10/28 07:41:29;;;;;;;;;2.00;2.00;;;;;;;;5079339;28;45547;-76
2023/10/28 07:43:54;;;;;;;;;1.75;1.00;;;;;;;;5073255;28;45267;-76
2023/10/28 07:46:20;;;;;;;;;2.00;1.50;;;;;;;;5060861;28;45280;-76
2023/10/28 07:48:45;;;;;;;;;1.25;1.25;;;;;;;;5062899;28;45401;-76
2023/10/28 07:51:13;;;;;;;;;2.75;1.50;;;;;;;;5061278;28;46542;-76
2023/10/28 07:53:38;;;;;;;;;1.25;1.25;;;;;;;;5062535;28;45341;-76
2023/10/28 07:56:03;;;;;;;;;3.00;2.50;;;;;;;;5061262;28;45346;-77
2023/10/28 07:58:30;;;;;;;;;1.50;0.50;;;;;;;;5065391;28;45477;-77
2023/10/28 08:00:55;;;;;;;;;0.00;0.00;;;;;;;;5076166;28;45598;-77
2023/10/28 08:03:20;;;;;;;;;0.75;0.25;;;;;;;;5071790;28;45585;-76
2023/10/28 08:05:45;;;;;;;;;1.00;1.00;;;;;;;;5062902;28;45256;-77
2023/10/28 08:08:10;;;;;;;;;0.25;0.25;;;;;;;;5066824;27;45418;-77
2023/10/28 08:10:38;;;;;;;;;2.25;1.75;;;;;;;;5079805;28;46429;-77
2023/10/28 08:13:03;;;;;;;;;0.75;0.75;;;;;;;;5081843;27;45625;-77
2023/10/28 08:15:29;;;;;;;;;2.00;0.25;;;;;;;;5081980;28;45389;-77
2023/10/28 08:17:55;;;;;;;;;1.67;1.67;;;;;;;;5090894;27;45437;-77
2023/10/28 08:20:20;;;;;;;;;0.75;0.75;;;;;;;;5075803;27;45509;-76
2023/10/28 08:22:46;;;;;;;;;2.00;0.00;;;;;;;;5069673;27;45372;-78
2023/10/28 08:25:15;;;;;;;;;1.25;1.00;;;;;;;;5081252;28;45608;-77
2023/10/28 08:27:41;;;;;;;;;1.00;1.00;;;;;;;;5074131;27;45233;-77
2023/10/28 08:30:07;;;;;;;;;0.25;0.25;;;;;;;;5092268;27;46028;-77
2023/10/28 08:32:32;;;;;;;;;0.00;0.00;;;;;;;;5100555;27;48034;-77
2023/10/28 08:34:57;;;;;;;;;0.00;0.00;;;;;;;;5103010;27;45270;-76
2023/10/28 08:37:23;;;;;;;;;1.50;0.25;;;;;;;;5102923;27;45499;-77
2023/10/28 08:39:48;;;;;;;;;1.75;1.25;;;;;;;;5102891;27;45470;-78
2023/10/28 08:42:13;;;;;;;;;2.67;2.67;;;;;;;;5101043;27;47573;-77
2023/10/28 08:44:40;;;;;;;;;1.00;1.00;;;;;;;;5102685;27;45371;-77
2023/10/28 08:47:08;;;;;;;;;2.25;2.25;;;;;;;;5096305;27;45412;-77
2023/10/28 08:49:37;;;;;;;;;2.00;2.00;;;;;;;;5070480;28;46965;-77
2023/10/28 08:52:04;;;;;;;;;1.50;1.50;;;;;;;;5070564;28;48170;-77
2023/10/28 08:54:30;;;;;;;;;0.75;0.75;;;;;;;;5070448;27;45411;-77
2023/10/28 08:56:59;;;;;;;;;0.00;0.00;;;;;;;;5059081;28;45363;-77
2023/10/28 08:59:25;;;;;;;;;0.00;0.00;;;;;;;;5075753;28;46157;-76
2023/10/28 09:01:50;;;;;;;;;2.75;1.00;;;;;;;;5072710;28;46220;-78
2023/10/28 09:04:16;;;;;;;;;2.33;2.33;;;;;;;;5071682;28;45201;-77
2023/10/28 09:06:42;;;;;;;;;1.50;1.00;;;;;;;;5058962;28;45273;-76
2023/10/28 09:09:12;;;;;;;;;0.50;0.50;;;;;;;;5060253;28;45463;-76
2023/10/28 09:11:37;;;;;;;;;2.00;2.00;;;;;;;;5060879;28;45425;-77
2023/10/28 09:14:07;;;;;;;;;0.00;0.00;;;;;;;;5061341;28;45275;-77
2023/10/28 09:16:33;;;;;;;;;2.00;0.50;;;;;;;;5066798;28;45279;-77
2023/10/28 09:18:58;;;;;;;;;0.00;0.00;;;;;;;;5068410;28;47448;-77
2023/10/28 09:21:23;;;;;;;;;1.75;0.00;;;;;;;;5062194;28;45661;-76
2023/10/28 09:23:49;;;;;;;;;2.00;0.00;;;;;;;;5063682;28;45491;-76
2023/10/28 09:26:14;;;;;;;;;0.00;0.00;;;;;;;;5069897;28;45459;-76
2023/10/28 09:28:43;;;;;;;;;0.00;0.00;;;;;;;;5071176;27;45504;-76
2023/10/28 09:31:08;;;;;;;;;0.75;0.50;;;;;;;;5070718;28;48260;-77
2023/10/28 09:33:34;;;;;;;;;0.00;0.00;;;;;;;;5080777;28;45341;-76
2023/10/28 09:35:59;;;;;;;;;0.00;0.00;;;;;;;;5077643;28;45371;-77
2023/10/28 09:38:24;;;;;;;;;0.00;0.00;;;;;;;;5058414;28;47336;-77
2023/10/28 09:40:50;;;;;;;;;1.00;0.00;;;;;;;;5061250;28;46206;-77
2023/10/28 09:43:15;;;;;;;;;0.00;0.00;;;;;;;;5070403;28;45311;-78
2023/10/28 09:45:45;;;;;;;;;2.00;2.00;;;;;;;;5074640;28;45380;-77
2023/10/28 09:48:13;;;;;;;;;0.00;0.00;;;;;;;;5077385;28;46428;-77
2023/10/28 09:50:44;;;;;;;;;0.00;0.00;;;;;;;;5060031;28;45323;-77
2023/10/28 09:53:12;;;;;;;;;2.75;2.00;;;;;;;;5062976;28;45386;-76
2023/10/28 09:55:40;;;;;;;;;0.00;0.00;;;;;;;;5069600;28;45420;-77
2023/10/28 09:58:09;;;;;;;;;0.00;0.00;;;;;;;;5068272;28;45479;-77
2023/10/28 10:00:37;;;;;;;;;0.00;0.00;;;;;;;;5073441;27;45389;-76
2023/10/28 10:03:18;;;;;;;;;0.00;0.00;;;;;;;;5079979;28;45406;-76
2023/10/28 10:05:44;;;;;;;;;0.00;0.00;;;;;;;;5079009;27;45351;-77
2023/10/28 10:08:19;;;;;;;;;0.00;0.00;;;;;;;;5079318;28;45396;-76
2023/10/28 10:10:48;;;;;;;;;0.00;0.00;;;;;;;;5079701;27;46036;-77
2023/10/28 10:13:15;;;;;;;;;0.00;0.00;;;;;;;;5078292;28;45649;-77
2023/10/28 10:15:44;;;;;;;;;2.00;0.00;;;;;;;;5066034;28;45593;-76
2023/10/28 10:18:10;;;;;;;;;0.00;0.00;;;;;;;;5058160;28;46989;-77
2023/10/28 10:20:36;;;;;;;;;0.00;0.00;;;;;;;;5057588;28;47291;-77
2023/10/28 10:23:02;;;;;;;;;0.00;0.00;;;;;;;;5058122;28;45355;-77
2023/10/28 10:25:37;;;;;;;;;0.00;0.00;;;;;;;;5059805;28;45316;-76
2023/10/28 10:28:06;;;;;;;;;0.00;0.00;;;;;;;;5059837;28;45498;-77
2023/10/28 10:30:34;;;;;;;;;0.00;0.00;;;;;;;;5097871;27;45339;-77
2023/10/28 10:33:00;;;;;;;;;0.00;0.00;;;;;;;;5101322;27;45293;-77
2023/10/28 10:35:26;;;;;;;;;0.00;0.00;;;;;;;;5076079;27;45705;-77
2023/10/28 10:37:59;;;;;;;;;3.00;3.00;;;;;;;;5058589;28;47297;-77
2023/10/28 10:40:24;;;;;;;;;0.00;0.00;;;;;;;;5063889;28;46303;-77
2023/10/28 10:42:50;;;;;;;;;0.00;0.00;;;;;;;;5059729;28;45335;-77
2023/10/28 10:45:17;;;;;;;;;1.75;0.00;;;;;;;;5069343;27;45715;-77
2023/10/28 10:47:42;;;;;;;;;0.00;0.00;;;;;;;;5069260;27;45663;-77
2023/10/28 10:50:08;;;;;;;;;1.00;0.00;;;;;;;;5079984;27;45449;-76
2023/10/28 10:52:33;;;;;;;;;1.00;0.00;;;;;;;;5074539;28;45366;-77
2023/10/28 10:54:59;;;;;;;;;0.00;0.00;;;;;;;;5076822;27;45425;-76
2023/10/28 10:57:24;;;;;;;;;0.00;0.00;;;;;;;;5074799;28;45227;-76
2023/10/28 10:59:49;;;;;;;;;1.00;1.00;;;;;;;;5079662;27;45376;-76
2023/10/28 11:02:15;;;;;;;;;0.00;0.00;;;;;;;;5068594;28;45788;-76
2023/10/28 11:04:40;;;;;;;;;0.00;0.00;;;;;;;;5060392;27;45372;-75
2023/10/28 11:07:06;;;;;;;;;1.50;1.50;;;;;;;;5072995;28;45200;-76
2023/10/28 11:09:32;;;;;;;;;0.00;0.00;;;;;;;;5072815;27;45310;-76
2023/10/28 11:11:57;;;;;;;;;0.75;0.00;;;;;;;;5078897;28;45286;-77
2023/10/28 11:14:24;;;;;;;;;0.00;0.00;;;;;;;;5076315;27;45301;-77
2023/10/28 11:16:50;;;;;;;;;1.00;1.00;;;;;;;;5080215;28;45406;-76
2023/10/28 11:19:17;;;;;;;;;1.25;1.25;;;;;;;;5075997;28;48151;-76
2023/10/28 11:21:42;;;;;;;;;0.00;0.00;;;;;;;;5083523;27;45406;-77
2023/10/28 11:24:10;;;;;;;;;0.00;0.00;;;;;;;;5065177;28;45501;-76
2023/10/28 11:26:36;;;;;;;;;0.00;0.00;;;;;;;;5077408;27;45391;-74
2023/10/28 11:29:02;;;;;;;;;0.00;0.00;;;;;;;;5077035;27;45237;-76
2023/10/28 11:31:28;;;;;;;;;0.00;0.00;;;;;;;;5095075;27;45271;-77
2023/10/28 11:33:54;;;;;;;;;0.00;0.00;;;;;;;;5079969;28;45632;-76
2023/10/28 11:36:21;;;;;;;;;0.00;0.00;;;;;;;;5079367;27;45506;-77
2023/10/28 11:38:47;;;;;;;;;0.25;0.25;;;;;;;;5079407;28;45361;-77
2023/10/28 11:41:13;;;;;;;;;0.00;0.00;;;;;;;;5080383;28;45425;-76
2023/10/28 11:43:38;;;;;;;;;0.00;0.00;;;;;;;;5079750;28;45286;-77
2023/10/28 11:46:03;;;;;;;;;0.00;0.00;;;;;;;;5067398;28;46190;-77
2023/10/28 11:48:29;;;;;;;;;0.00;0.00;;;;;;;;5078792;28;45380;-77
2023/10/28 11:50:54;;;;;;;;;0.00;0.00;;;;;;;;5071784;28;45177;-77
2023/10/28 11:53:23;;;;;;;;;0.00;0.00;;;;;;;;5072672;28;45176;-76
2023/10/28 11:55:48;;;;;;;;;0.00;0.00;;;;;;;;5076489;28;45623;-77
2023/10/28 11:58:14;;;;;;;;;0.00;0.00;;;;;;;;5077842;28;45988;-76
2023/10/28 12:00:39;;;;;;;;;0.25;0.25;;;;;;;;5064611;28;45439;-76
2023/10/28 12:03:04;;;;;;;;;0.00;0.00;;;;;;;;5057648;28;45380;-76
2023/10/28 12:05:30;;;;;;;;;0.50;0.00;;;;;;;;5059373;28;46206;-77
2023/10/28 12:07:55;;;;;;;;;0.00;0.00;;;;;;;;5070273;28;45383;-76
2023/10/28 12:10:20;;;;;;;;;0.00;0.00;;;;;;;;5066136;28;45350;-76
2023/10/28 12:12:45;;;;;;;;;0.00;0.00;;;;;;;;5063045;28;45591;-77
2023/10/28 12:15:11;;;;;;;;;1.00;0.00;;;;;;;;5070808;28;45471;-77
2023/10/28 12:17:36;;;;;;;;;0.00;0.00;;;;;;;;5078671;28;45284;-76
2023/10/28 12:20:02;;;;;;;;;0.00;0.00;;;;;;;;5080448;28;46159;-77
2023/10/28 12:22:27;;;;;;;;;0.00;0.00;;;;;;;;5078611;28;45476;-76
2023/10/28 12:24:53;;;;;;;;;0.00;0.00;;;;;;;;5066103;28;46204;-77
2023/10/28 12:27:18;;;;;;;;;0.00;0.00;;;;;;;;5066679;28;45401;-77
2023/10/28 12:29:45;;;;;;;;;0.00;0.00;;;;;;;;5073764;27;45691;-77
2023/10/28 12:32:10;;;;;;;;;0.00;0.00;;;;;;;;5063463;28;45168;-77
2023/10/28 12:34:36;;;;;;;;;0.00;0.00;;;;;;;;5061237;28;45234;-76
2023/10/28 12:37:01;;;;;;;;;0.00;0.00;;;;;;;;5061132;28;45914;-77
2023/10/28 12:39:28;;;;;;;;;0.00;0.00;;;;;;;;5060975;28;45273;-76
2023/10/28 12:41:53;;;;;;;;;0.00;0.00;;;;;;;;5060557;28;45482;-76
2023/10/28 12:44:18;;;;;;;;;0.00;0.00;;;;;;;;5060527;28;45478;-77
2023/10/28 12:46:43;;;;;;;;;1.00;0.00;;;;;;;;5070265;28;45801;-77
2023/10/28 12:49:08;;;;;;;;;0.00;0.00;;;;;;;;5080211;28;45787;-76
2023/10/28 12:51:34;;;;;;;;;0.00;0.00;;;;;;;;5080128;28;45390;-78
2023/10/28 12:54:01;;;;;;;;;0.00;0.00;;;;;;;;5081006;28;45489;-77
2023/10/28 12:56:27;;;;;;;;;0.00;0.00;;;;;;;;5078514;28;47172;-77
2023/10/28 12:58:52;;;;;;;;;0.00;0.00;;;;;;;;5080095;28;45406;-78
2023/10/28 13:01:17;;;;;;;;;0.00;0.00;;;;;;;;5090266;27;45315;-77
2023/10/28 13:03:42;;;;;;;;;0.00;0.00;;;;;;;;5079112;28;45686;-77
2023/10/28 13:06:09;;;;;;;;;1.50;0.00;;;;;;;;5080396;27;45425;-77
2023/10/28 13:08:34;;;;;;;;;0.00;0.00;;;;;;;;5081078;28;45426;-77
2023/10/28 13:10:59;;;;;;;;;0.00;0.00;;;;;;;;5079923;27;45277;-77
2023/10/28 13:13:25;;;;;;;;;0.00;0.00;;;;;;;;5080215;28;45217;-77
2023/10/28 13:15:51;;;;;;;;;0.00;0.00;;;;;;;;5079057;27;45288;-76
2023/10/28 13:18:16;;;;;;;;;0.00;0.00;;;;;;;;5070761;28;45465;-79
2023/10/28 13:20:42;;;;;;;;;0.00;0.00;;;;;;;;5070011;27;45567;-77
2023/10/28 13:23:08;;;;;;;;;0.25;0.00;;;;;;;;5077045;28;45684;-77
2023/10/28 13:25:33;;;;;;;;;0.00;0.00;;;;;;;;5071955;28;46373;-76
2023/10/28 13:27:58;;;;;;;;;0.00;0.00;;;;;;;;5066257;28;45770;-77
2023/10/28 13:30:24;;;;;;;;;0.00;0.00;;;;;;;;5070137;27;45316;-77
2023/10/28 13:32:51;;;;;;;;;0.00;0.00;;;;;;;;5070590;28;45440;-77
2023/10/28 13:35:16;;;;;;;;;0.00;0.00;;;;;;;;5070365;28;45402;-77
2023/10/28 13:37:41;;;;;;;;;0.00;0.00;;;;;;;;5067511;28;45315;-76
2023/10/28 13:40:07;;;;;;;;;0.00;0.00;;;;;;;;5068614;28;45395;-77
2023/10/28 13:42:32;;;;;;;;;0.00;0.00;;;;;;;;5070681;28;45497;-77
2023/10/28 13:44:58;;;;;;;;;0.00;0.00;;;;;;;;5066355;28;45920;-78
2023/10/28 13:47:23;;;;;;;;;0.00;0.00;;;;;;;;5071679;28;45468;-76
2023/10/28 13:49:48;;;;;;;;;0.00;0.00;;;;;;;;5078458;28;45294;-77
2023/10/28 13:52:14;;;;;;;;;0.00;0.00;;;;;;;;5077487;28;45489;-77
2023/10/28 13:54:40;;;;;;;;;0.00;0.00;;;;;;;;5081660;28;45400;-78
2023/10/28 13:57:05;;;;;;;;;0.00;0.00;;;;;;;;5081807;28;45204;-79
2023/10/28 13:59:31;;;;;;;;;0.00;0.00;;;;;;;;5081636;28;45366;-78
2023/10/28 14:01:56;;;;;;;;;0.00;0.00;;;;;;;;5069758;28;45437;-77
2023/10/28 14:04:21;;;;;;;;;0.00;0.00;;;;;;;;5079335;28;45212;-77
2023/10/28 14:06:46;;;;;;;;;0.00;0.00;;;;;;;;5073103;28;45386;-76
2023/10/28 14:09:14;;;;;;;;;0.00;0.00;;;;;;;;5064691;27;45287;-77
2023/10/28 14:11:39;;;;;;;;;0.00;0.00;;;;;;;;5068800;27;45476;-77
2023/10/28 14:14:04;;;;;;;;;0.00;0.00;;;;;;;;5080195;28;46254;-77
2023/10/28 14:16:29;;;;;;;;;0.00;0.00;;;;;;;;5078552;27;45428;-77
2023/10/28 14:18:57;;;;;;;;;0.00;0.00;;;;;;;;5061268;28;45362;-78
2023/10/28 14:21:22;;;;;;;;;0.00;0.00;;;;;;;;5069349;27;45591;-78
2023/10/28 14:23:48;;;;;;;;;0.00;0.00;;;;;;;;5067717;27;46867;-78
2023/10/28 14:26:13;;;;;;;;;1.50;0.00;;;;;;;;5076051;27;45486;-78
2023/10/28 14:28:38;;;;;;;;;1.00;1.00;;;;;;;;5073200;27;45393;-79
2023/10/28 14:31:04;;;;;;;;;0.00;0.00;;;;;;;;5073645;27;45552;-77
2023/10/28 14:33:29;;;;;;;;;2.75;1.00;;;;;;;;5067353;28;45788;-77